sensor_id;sensor_type;location;lat;lon;timestamp;pressure;altitude;pressure_sealevel;temperature;humidity
61408;BME280;47274;43.054;25.146;2023-04-01T00:01:47;94618.47;;;10.56;60.72
61408;BME280;47274;43.054;25.146;2023-04-01T00:04:12;94598.44;;;10.51;60.51
61408;BME280;47274;43.054;25.146;2023-04-01T00:06:38;94607.59;;;10.54;60.59
61408;BME280;47274;43.054;25.146;2023-04-01T00:09:04;94608.72;;;10.51;60.87
61408;BME280;47274;43.054;25.146;2023-04-01T00:11:30;94619.91;;;10.58;60.89
61408;BME280;47274;43.054;25.146;2023-04-01T00:13:55;94613.03;;;10.51;60.98
61408;BME280;47274;43.054;25.146;2023-04-01T00:16:21;94618.19;;;10.42;61.94
61408;BME280;47274;43.054;25.146;2023-04-01T00:18:47;94597.44;;;10.21;62.38
61408;BME280;47274;43.054;25.146;2023-04-01T00:21:14;94603.38;;;10.30;62.31
61408;BME280;47274;43.054;25.146;2023-04-01T00:23:41;94591.28;;;10.38;61.11
61408;BME280;47274;43.054;25.146;2023-04-01T00:26:07;94602.34;;;10.39;61.96
61408;BME280;47274;43.054;25.146;2023-04-01T00:28:34;94590.41;;;10.15;62.77
61408;BME280;47274;43.054;25.146;2023-04-01T00:31:08;94607.88;;;10.11;63.50
61408;BME280;47274;43.054;25.146;2023-04-01T00:33:35;94578.09;;;10.10;62.30
61408;BME280;47274;43.054;25.146;2023-04-01T00:36:12;94582.25;;;10.11;63.00
61408;BME280;47274;43.054;25.146;2023-04-01T00:38:38;94588.38;;;10.02;63.39
61408;BME280;47274;43.054;25.146;2023-04-01T00:41:05;94577.06;;;9.80;63.97
61408;BME280;47274;43.054;25.146;2023-04-01T00:43:31;94587.44;;;9.87;64.26
61408;BME280;47274;43.054;25.146;2023-04-01T00:45:57;94566.19;;;9.70;64.83
61408;BME280;47274;43.054;25.146;2023-04-01T00:48:27;94572.16;;;9.62;65.02
61408;BME280;47274;43.054;25.146;2023-04-01T00:50:59;94565.72;;;9.66;64.51
61408;BME280;47274;43.054;25.146;2023-04-01T00:53:28;94569.75;;;9.53;65.42
61408;BME280;47274;43.054;25.146;2023-04-01T00:56:03;94575.53;;;9.46;66.40
61408;BME280;47274;43.054;25.146;2023-04-01T00:58:33;94568.50;;;9.32;66.09
61408;BME280;47274;43.054;25.146;2023-04-01T01:01:00;94571.25;;;9.31;67.11
61408;BME280;47274;43.054;25.146;2023-04-01T01:03:27;94578.44;;;9.27;67.49
61408;BME280;47274;43.054;25.146;2023-04-01T01:06:15;94570.63;;;9.20;67.19
61408;BME280;47274;43.054;25.146;2023-04-01T01:12:14;94566.59;;;9.26;67.46
61408;BME280;47274;43.054;25.146;2023-04-01T01:15:08;94572.03;;;9.31;67.29
61408;BME280;47274;43.054;25.146;2023-04-01T01:17:58;94568.34;;;9.42;66.83
61408;BME280;47274;43.054;25.146;2023-04-01T01:20:49;94555.88;;;9.39;66.60
61408;BME280;47274;43.054;25.146;2023-04-01T01:34:35;94531.84;;;9.48;64.99
61408;BME280;47274;43.054;25.146;2023-04-01T01:37:09;94541.75;;;9.59;64.53
61408;BME280;47274;43.054;25.146;2023-04-01T01:39:37;94541.69;;;9.67;64.01
61408;BME280;47274;43.054;25.146;2023-04-01T01:42:06;94539.97;;;9.68;64.01
61408;BME280;47274;43.054;25.146;2023-04-01T01:44:35;94548.13;;;9.71;64.38
61408;BME280;47274;43.054;25.146;2023-04-01T01:47:03;94531.34;;;9.61;64.41
61408;BME280;47274;43.054;25.146;2023-04-01T01:49:31;94527.03;;;9.61;64.24
61408;BME280;47274;43.054;25.146;2023-04-01T01:51:58;94547.63;;;9.76;63.94
61408;BME280;47274;43.054;25.146;2023-04-01T01:54:23;94535.00;;;9.66;64.02
61408;BME280;47274;43.054;25.146;2023-04-01T01:56:52;94537.84;;;9.80;63.60
61408;BME280;47274;43.054;25.146;2023-04-01T01:59:24;94517.06;;;9.75;63.32
61408;BME280;47274;43.054;25.146;2023-04-01T02:01:52;94535.88;;;9.90;62.73
61408;BME280;47274;43.054;25.146;2023-04-01T02:04:21;94526.88;;;9.94;62.92
61408;BME280;47274;43.054;25.146;2023-04-01T02:06:53;94512.06;;;9.81;62.66
61408;BME280;47274;43.054;25.146;2023-04-01T02:09:21;94526.41;;;9.90;62.98
61408;BME280;47274;43.054;25.146;2023-04-01T02:11:54;94514.31;;;9.76;63.20
61408;BME280;47274;43.054;25.146;2023-04-01T02:14:23;94510.31;;;9.73;62.94
61408;BME280;47274;43.054;25.146;2023-04-01T02:16:56;94520.69;;;9.80;63.66
61408;BME280;47274;43.054;25.146;2023-04-01T02:19:46;94516.72;;;9.69;63.87
61408;BME280;47274;43.054;25.146;2023-04-01T02:22:18;94519.91;;;9.80;63.64
61408;BME280;47274;43.054;25.146;2023-04-01T02:24:45;94507.88;;;9.80;63.15
61408;BME280;47274;43.054;25.146;2023-04-01T02:27:12;94513.91;;;9.95;62.25
61408;BME280;47274;43.054;25.146;2023-04-01T02:29:38;94508.41;;;10.07;61.86
61408;BME280;47274;43.054;25.146;2023-04-01T02:32:07;94520.06;;;10.26;61.11
61408;BME280;47274;43.054;25.146;2023-04-01T02:34:34;94506.84;;;10.37;60.26
61408;BME280;47274;43.054;25.146;2023-04-01T02:37:00;94512.47;;;10.32;60.61
61408;BME280;47274;43.054;25.146;2023-04-01T02:39:26;94506.09;;;10.20;61.05
61408;BME280;47274;43.054;25.146;2023-04-01T02:41:53;94500.00;;;10.29;60.49
61408;BME280;47274;43.054;25.146;2023-04-01T02:44:19;94506.50;;;10.40;59.89
61408;BME280;47274;43.054;25.146;2023-04-01T02:46:45;94494.03;;;10.37;59.94
61408;BME280;47274;43.054;25.146;2023-04-01T02:49:11;94497.56;;;10.36;60.03
61408;BME280;47274;43.054;25.146;2023-04-01T02:51:37;94501.84;;;10.43;59.42
61408;BME280;47274;43.054;25.146;2023-04-01T02:54:02;94480.06;;;10.39;59.08
61408;BME280;47274;43.054;25.146;2023-04-01T02:56:28;94487.63;;;10.33;59.51
61408;BME280;47274;43.054;25.146;2023-04-01T02:58:54;94491.25;;;10.15;60.47
61408;BME280;47274;43.054;25.146;2023-04-01T03:01:20;94481.19;;;10.06;60.79
61408;BME280;47274;43.054;25.146;2023-04-01T03:03:46;94491.28;;;10.38;58.97
61408;BME280;47274;43.054;25.146;2023-04-01T03:06:15;94474.88;;;10.48;58.44
61408;BME280;47274;43.054;25.146;2023-04-01T03:08:41;94470.94;;;10.37;58.77
61408;BME280;47274;43.054;25.146;2023-04-01T03:11:08;94456.16;;;10.39;58.27
61408;BME280;47274;43.054;25.146;2023-04-01T03:13:35;94475.31;;;10.51;58.38
61408;BME280;47274;43.054;25.146;2023-04-01T03:16:02;94481.44;;;10.50;57.47
61408;BME280;47274;43.054;25.146;2023-04-01T03:18:27;94465.00;;;10.59;56.49
61408;BME280;47274;43.054;25.146;2023-04-01T03:20:53;94468.13;;;10.70;56.87
61408;BME280;47274;43.054;25.146;2023-04-01T03:23:19;94475.59;;;10.56;57.81
61408;BME280;47274;43.054;25.146;2023-04-01T03:25:47;94465.84;;;10.52;57.30
61408;BME280;47274;43.054;25.146;2023-04-01T03:28:14;94475.66;;;10.71;56.46
61408;BME280;47274;43.054;25.146;2023-04-01T03:30:40;94485.94;;;10.71;56.77
61408;BME280;47274;43.054;25.146;2023-04-01T03:33:06;94484.03;;;10.65;57.37
61408;BME280;47274;43.054;25.146;2023-04-01T03:35:32;94478.28;;;10.63;57.19
61408;BME280;47274;43.054;25.146;2023-04-01T03:37:58;94470.84;;;10.53;57.43
61408;BME280;47274;43.054;25.146;2023-04-01T03:40:24;94476.91;;;10.52;57.44
61408;BME280;47274;43.054;25.146;2023-04-01T03:42:52;94460.00;;;10.43;57.60
61408;BME280;47274;43.054;25.146;2023-04-01T03:45:18;94459.59;;;10.54;57.18
61408;BME280;47274;43.054;25.146;2023-04-01T03:47:44;94472.47;;;10.69;56.52
61408;BME280;47274;43.054;25.146;2023-04-01T03:50:10;94456.13;;;10.70;56.33
61408;BME280;47274;43.054;25.146;2023-04-01T03:52:36;94460.53;;;10.76;56.33
61408;BME280;47274;43.054;25.146;2023-04-01T03:55:02;94459.97;;;10.66;56.61
61408;BME280;47274;43.054;25.146;2023-04-01T03:57:30;94464.16;;;10.67;56.38
61408;BME280;47274;43.054;25.146;2023-04-01T04:00:01;94450.06;;;10.63;56.56
61408;BME280;47274;43.054;25.146;2023-04-01T04:02:28;94451.31;;;10.67;55.64
61408;BME280;47274;43.054;25.146;2023-04-01T04:04:53;94459.75;;;10.76;55.81
61408;BME280;47274;43.054;25.146;2023-04-01T04:07:20;94460.03;;;10.81;55.15
61408;BME280;47274;43.054;25.146;2023-04-01T04:10:05;94470.22;;;10.89;55.40
61408;BME280;47274;43.054;25.146;2023-04-01T04:12:31;94469.66;;;10.79;56.05
61408;BME280;47274;43.054;25.146;2023-04-01T04:14:57;94478.09;;;10.87;55.61
61408;BME280;47274;43.054;25.146;2023-04-01T04:17:22;94466.50;;;10.91;55.09
61408;BME280;47274;43.054;25.146;2023-04-01T04:19:48;94471.41;;;11.01;55.19
61408;BME280;47274;43.054;25.146;2023-04-01T04:22:15;94454.63;;;10.90;55.41
61408;BME280;47274;43.054;25.146;2023-04-01T04:24:41;94453.56;;;10.85;55.50
61408;BME280;47274;43.054;25.146;2023-04-01T04:27:10;94461.38;;;10.91;55.53
61408;BME280;47274;43.054;25.146;2023-04-01T04:29:43;94453.88;;;11.05;54.70
61408;BME280;47274;43.054;25.146;2023-04-01T04:32:09;94456.69;;;11.10;54.48
61408;BME280;47274;43.054;25.146;2023-04-01T04:34:35;94460.78;;;11.34;53.55
61408;BME280;47274;43.054;25.146;2023-04-01T04:37:01;94455.91;;;11.24;53.23
61408;BME280;47274;43.054;25.146;2023-04-01T04:39:30;94447.16;;;11.19;54.59
61408;BME280;47274;43.054;25.146;2023-04-01T04:41:56;94439.47;;;11.19;53.40
61408;BME280;47274;43.054;25.146;2023-04-01T04:44:22;94462.22;;;11.51;53.25
61408;BME280;47274;43.054;25.146;2023-04-01T04:46:48;94445.56;;;11.32;54.02
61408;BME280;47274;43.054;25.146;2023-04-01T04:49:15;94438.56;;;11.11;54.80
61408;BME280;47274;43.054;25.146;2023-04-01T04:51:41;94428.63;;;10.94;54.97
61408;BME280;47274;43.054;25.146;2023-04-01T04:54:07;94458.28;;;11.11;54.52
61408;BME280;47274;43.054;25.146;2023-04-01T04:57:05;94436.16;;;11.10;53.76
61408;BME280;47274;43.054;25.146;2023-04-01T04:59:37;94437.50;;;11.21;54.20
61408;BME280;47274;43.054;25.146;2023-04-01T05:02:17;94454.22;;;11.31;53.65
61408;BME280;47274;43.054;25.146;2023-04-01T05:04:43;94449.81;;;11.40;52.96
61408;BME280;47274;43.054;25.146;2023-04-01T05:07:10;94445.91;;;11.44;53.63
61408;BME280;47274;43.054;25.146;2023-04-01T05:09:36;94427.94;;;11.44;53.08
61408;BME280;47274;43.054;25.146;2023-04-01T05:12:02;94425.28;;;11.52;54.16
61408;BME280;47274;43.054;25.146;2023-04-01T05:14:41;94432.34;;;11.65;52.40
61408;BME280;47274;43.054;25.146;2023-04-01T05:17:10;94425.41;;;11.66;53.97
61408;BME280;47274;43.054;25.146;2023-04-01T05:19:37;94427.81;;;11.67;53.14
61408;BME280;47274;43.054;25.146;2023-04-01T05:22:04;94424.19;;;11.61;54.68
61408;BME280;47274;43.054;25.146;2023-04-01T05:24:31;94436.69;;;11.65;54.12
61408;BME280;47274;43.054;25.146;2023-04-01T05:26:58;94422.50;;;11.69;52.54
61408;BME280;47274;43.054;25.146;2023-04-01T05:29:25;94431.72;;;11.78;51.92
61408;BME280;47274;43.054;25.146;2023-04-01T05:31:58;94412.38;;;11.82;51.75
61408;BME280;47274;43.054;25.146;2023-04-01T05:34:24;94423.56;;;11.89;52.32
61408;BME280;47274;43.054;25.146;2023-04-01T05:36:49;94426.47;;;12.01;50.62
61408;BME280;47274;43.054;25.146;2023-04-01T05:39:16;94420.44;;;11.94;51.01
61408;BME280;47274;43.054;25.146;2023-04-01T05:41:42;94418.16;;;11.84;52.54
61408;BME280;47274;43.054;25.146;2023-04-01T05:44:11;94418.59;;;11.73;52.91
61408;BME280;47274;43.054;25.146;2023-04-01T05:46:40;94421.19;;;11.73;53.66
61408;BME280;47274;43.054;25.146;2023-04-01T05:49:19;94427.13;;;11.73;52.47
61408;BME280;47274;43.054;25.146;2023-04-01T05:51:45;94411.16;;;11.78;51.61
61408;BME280;47274;43.054;25.146;2023-04-01T05:54:11;94408.13;;;11.89;51.62
61408;BME280;47274;43.054;25.146;2023-04-01T05:56:38;94407.66;;;12.00;51.37
61408;BME280;47274;43.054;25.146;2023-04-01T05:59:03;94412.53;;;11.95;51.63
61408;BME280;47274;43.054;25.146;2023-04-01T06:01:29;94409.91;;;11.89;52.10
61408;BME280;47274;43.054;25.146;2023-04-01T06:03:55;94412.38;;;11.82;52.16
61408;BME280;47274;43.054;25.146;2023-04-01T06:06:26;94388.41;;;11.60;53.19
61408;BME280;47274;43.054;25.146;2023-04-01T06:09:07;94418.03;;;11.92;50.78
61408;BME280;47274;43.054;25.146;2023-04-01T06:17:24;94401.28;;;11.96;50.28
61408;BME280;47274;43.054;25.146;2023-04-01T06:31:05;94414.78;;;11.83;53.45
61408;BME280;47274;43.054;25.146;2023-04-01T06:37:22;94399.13;;;11.63;55.15
61408;BME280;47274;43.054;25.146;2023-04-01T06:39:51;94401.69;;;11.63;54.32
61408;BME280;47274;43.054;25.146;2023-04-01T06:51:20;94384.75;;;12.05;53.36
61408;BME280;47274;43.054;25.146;2023-04-01T06:54:32;94364.25;;;12.12;52.05
61408;BME280;47274;43.054;25.146;2023-04-01T07:00:00;94360.50;;;12.36;53.27
61408;BME280;47274;43.054;25.146;2023-04-01T07:02:44;94369.28;;;12.70;52.19
61408;BME280;47274;43.054;25.146;2023-04-01T07:05:14;94370.00;;;12.92;50.88
61408;BME280;47274;43.054;25.146;2023-04-01T07:07:53;94366.78;;;13.18;49.24
61408;BME280;47274;43.054;25.146;2023-04-01T07:10:35;94388.78;;;13.48;49.22
61408;BME280;47274;43.054;25.146;2023-04-01T07:19:39;94359.47;;;13.63;49.20
61408;BME280;47274;43.054;25.146;2023-04-01T07:25:10;94356.88;;;13.56;48.36
61408;BME280;47274;43.054;25.146;2023-04-01T07:27:38;94357.81;;;13.42;47.63
61408;BME280;47274;43.054;25.146;2023-04-01T07:30:15;94360.44;;;13.55;48.07
61408;BME280;47274;43.054;25.146;2023-04-01T07:32:55;94325.09;;;13.42;47.66
61408;BME280;47274;43.054;25.146;2023-04-01T07:35:35;94305.66;;;13.40;50.18
61408;BME280;47274;43.054;25.146;2023-04-01T07:46:18;94302.44;;;14.32;48.76
61408;BME280;47274;43.054;25.146;2023-04-01T07:54:22;94342.75;;;14.46;51.55
61408;BME280;47274;43.054;25.146;2023-04-01T07:59:55;94346.09;;;15.00;47.24
61408;BME280;47274;43.054;25.146;2023-04-01T08:07:58;94349.31;;;15.99;48.84
61408;BME280;47274;43.054;25.146;2023-04-01T08:11:39;94321.25;;;15.96;46.04
61408;BME280;47274;43.054;25.146;2023-04-01T08:20:07;94308.03;;;16.35;46.34
61408;BME280;47274;43.054;25.146;2023-04-01T08:22:41;94312.94;;;16.44;46.10
61408;BME280;47274;43.054;25.146;2023-04-01T08:25:26;94299.50;;;16.35;46.04
61408;BME280;47274;43.054;25.146;2023-04-01T08:28:39;94308.56;;;16.19;46.74
61408;BME280;47274;43.054;25.146;2023-04-01T08:31:10;94314.66;;;16.31;48.78
61408;BME280;47274;43.054;25.146;2023-04-01T08:33:43;94307.72;;;16.50;46.40
61408;BME280;47274;43.054;25.146;2023-04-01T08:36:16;94294.00;;;16.68;46.63
61408;BME280;47274;43.054;25.146;2023-04-01T08:38:53;94302.56;;;16.75;45.63
61408;BME280;47274;43.054;25.146;2023-04-01T08:53:34;94298.31;;;16.99;48.92
61408;BME280;47274;43.054;25.146;2023-04-01T09:13:59;94251.00;;;19.35;40.56
61408;BME280;47274;43.054;25.146;2023-04-01T09:17:01;94235.66;;;19.51;40.61
61408;BME280;47274;43.054;25.146;2023-04-01T09:27:56;94225.50;;;19.09;41.40
61408;BME280;47274;43.054;25.146;2023-04-01T09:33:42;94255.16;;;18.37;41.59
61408;BME280;47274;43.054;25.146;2023-04-01T09:38:57;94253.84;;;17.81;42.38
61408;BME280;47274;43.054;25.146;2023-04-01T09:41:40;94246.56;;;17.41;45.49
61408;BME280;47274;43.054;25.146;2023-04-01T09:44:33;94244.97;;;17.10;48.26
61408;BME280;47274;43.054;25.146;2023-04-01T09:52:44;94238.47;;;17.19;49.36
61408;BME280;47274;43.054;25.146;2023-04-01T10:02:48;94183.16;;;17.25;47.59
61408;BME280;47274;43.054;25.146;2023-04-01T10:05:15;94192.03;;;17.78;47.17
61408;BME280;47274;43.054;25.146;2023-04-01T10:07:55;94183.00;;;18.51;47.47
61408;BME280;47274;43.054;25.146;2023-04-01T10:10:54;94189.00;;;18.40;45.02
61408;BME280;47274;43.054;25.146;2023-04-01T10:16:34;94172.31;;;18.12;45.35
61408;BME280;47274;43.054;25.146;2023-04-01T10:19:20;94159.44;;;18.29;44.23
61408;BME280;47274;43.054;25.146;2023-04-01T10:22:23;94143.34;;;19.08;41.60
61408;BME280;47274;43.054;25.146;2023-04-01T10:28:19;94143.00;;;19.04;40.66
61408;BME280;47274;43.054;25.146;2023-04-01T10:36:54;94137.81;;;21.27;38.88
61408;BME280;47274;43.054;25.146;2023-04-01T10:48:57;94155.06;;;23.50;31.57
61408;BME280;47274;43.054;25.146;2023-04-01T10:57:55;94143.94;;;22.02;35.86
61408;BME280;47274;43.054;25.146;2023-04-01T11:06:37;94107.75;;;21.46;37.59
61408;BME280;47274;43.054;25.146;2023-04-01T11:10:15;94119.63;;;22.39;36.15
61408;BME280;47274;43.054;25.146;2023-04-01T11:15:28;94099.28;;;21.66;35.09
61408;BME280;47274;43.054;25.146;2023-04-01T11:36:06;94046.53;;;20.51;38.98
61408;BME280;47274;43.054;25.146;2023-04-01T11:42:01;94052.47;;;20.24;39.12
61408;BME280;47274;43.054;25.146;2023-04-01T11:48:13;94062.94;;;20.07;38.97
61408;BME280;47274;43.054;25.146;2023-04-01T11:51:10;94039.09;;;19.60;39.38
61408;BME280;47274;43.054;25.146;2023-04-01T12:08:30;94034.69;;;19.44;45.24
61408;BME280;47274;43.054;25.146;2023-04-01T12:10:56;94030.50;;;19.42;44.86
61408;BME280;47274;43.054;25.146;2023-04-01T12:22:38;94023.84;;;19.52;46.12
61408;BME280;47274;43.054;25.146;2023-04-01T12:44:33;93999.53;;;17.69;50.51
61408;BME280;47274;43.054;25.146;2023-04-01T12:47:22;94011.16;;;17.32;51.26
61408;BME280;47274;43.054;25.146;2023-04-01T13:00:26;94022.56;;;16.10;54.98
61408;BME280;47274;43.054;25.146;2023-04-01T13:05:38;94022.38;;;16.11;55.39
61408;BME280;47274;43.054;25.146;2023-04-01T13:08:35;94017.69;;;16.02;54.97
61408;BME280;47274;43.054;25.146;2023-04-01T13:11:09;93989.97;;;15.65;56.40
61408;BME280;47274;43.054;25.146;2023-04-01T13:13:58;94003.00;;;15.59;56.40
61408;BME280;47274;43.054;25.146;2023-04-01T13:16:31;93991.13;;;15.51;55.79
61408;BME280;47274;43.054;25.146;2023-04-01T13:21:58;94030.28;;;15.55;56.92
61408;BME280;47274;43.054;25.146;2023-04-01T13:27:30;94011.38;;;15.36;56.86
61408;BME280;47274;43.054;25.146;2023-04-01T13:33:07;93992.78;;;15.21;56.99
61408;BME280;47274;43.054;25.146;2023-04-01T13:35:48;94006.31;;;15.23;58.46
61408;BME280;47274;43.054;25.146;2023-04-01T13:38:44;94021.63;;;14.92;58.24
61408;BME280;47274;43.054;25.146;2023-04-01T13:44:32;94019.66;;;14.56;60.08
61408;BME280;47274;43.054;25.146;2023-04-01T13:58:20;94051.09;;;13.95;61.08
61408;BME280;47274;43.054;25.146;2023-04-01T14:01:04;94060.44;;;13.83;61.40
61408;BME280;47274;43.054;25.146;2023-04-01T14:06:48;94076.34;;;13.33;65.57
61408;BME280;47274;43.054;25.146;2023-04-01T14:40:03;94261.81;;;10.64;100.00
61408;BME280;47274;43.054;25.146;2023-04-01T14:47:54;94247.75;;;10.45;100.00
61408;BME280;47274;43.054;25.146;2023-04-01T14:50:27;94245.06;;;10.24;100.00
61408;BME280;47274;43.054;25.146;2023-04-01T14:58:19;94193.47;;;10.27;100.00
61408;BME280;47274;43.054;25.146;2023-04-01T15:15:24;94107.25;;;10.98;100.00
61408;BME280;47274;43.054;25.146;2023-04-01T15:18:09;94113.34;;;10.97;100.00
61408;BME280;47274;43.054;25.146;2023-04-01T15:20:42;94113.09;;;10.92;100.00
61408;BME280;47274;43.054;25.146;2023-04-01T15:23:20;94108.59;;;10.94;100.00
61408;BME280;47274;43.054;25.146;2023-04-01T15:31:33;94083.53;;;10.75;100.00
61408;BME280;47274;43.054;25.146;2023-04-01T15:39:49;94078.81;;;10.57;100.00
61408;BME280;47274;43.054;25.146;2023-04-01T15:53:53;94104.25;;;10.95;100.00
61408;BME280;47274;43.054;25.146;2023-04-01T15:59:24;94114.38;;;10.81;100.00
61408;BME280;47274;43.054;25.146;2023-04-01T16:10:22;94115.28;;;10.23;100.00
61408;BME280;47274;43.054;25.146;2023-04-01T16:21:14;94133.53;;;9.60;100.00
61408;BME280;47274;43.054;25.146;2023-04-01T16:26:56;94147.75;;;9.48;100.00
61408;BME280;47274;43.054;25.146;2023-04-01T16:37:49;94152.97;;;9.09;100.00
61408;BME280;47274;43.054;25.146;2023-04-01T16:40:34;94170.41;;;9.13;100.00
61408;BME280;47274;43.054;25.146;2023-04-01T16:48:15;94163.09;;;8.79;100.00
61408;BME280;47274;43.054;25.146;2023-04-01T16:53:42;94164.34;;;8.83;100.00
61408;BME280;47274;43.054;25.146;2023-04-01T16:56:13;94167.06;;;8.82;100.00
61408;BME280;47274;43.054;25.146;2023-04-01T17:01:54;94172.09;;;8.67;100.00
61408;BME280;47274;43.054;25.146;2023-04-01T17:04:36;94145.78;;;8.58;100.00
61408;BME280;47274;43.054;25.146;2023-04-01T17:07:46;94173.03;;;8.74;100.00
61408;BME280;47274;43.054;25.146;2023-04-01T17:27:00;94198.34;;;8.92;100.00
61408;BME280;47274;43.054;25.146;2023-04-01T17:35:12;94200.53;;;9.03;99.29
61408;BME280;47274;43.054;25.146;2023-04-01T17:51:08;94284.94;;;8.72;100.00
61408;BME280;47274;43.054;25.146;2023-04-01T17:53:43;94330.06;;;9.04;100.00
61408;BME280;47274;43.054;25.146;2023-04-01T17:59:26;94318.75;;;8.90;100.00
61408;BME280;47274;43.054;25.146;2023-04-01T18:02:15;94319.50;;;8.60;100.00
61408;BME280;47274;43.054;25.146;2023-04-01T18:10:28;94359.63;;;8.59;100.00
61408;BME280;47274;43.054;25.146;2023-04-01T18:13:22;94375.09;;;8.58;100.00
61408;BME280;47274;43.054;25.146;2023-04-01T18:16:15;94374.00;;;8.60;100.00
61408;BME280;47274;43.054;25.146;2023-04-01T18:24:28;94351.78;;;8.52;100.00
61408;BME280;47274;43.054;25.146;2023-04-01T18:27:04;94341.41;;;8.46;100.00
61408;BME280;47274;43.054;25.146;2023-04-01T18:29:40;94327.97;;;8.44;100.00
61408;BME280;47274;43.054;25.146;2023-04-01T18:32:26;94326.72;;;8.40;100.00
61408;BME280;47274;43.054;25.146;2023-04-01T18:38:34;94320.31;;;8.19;100.00
61408;BME280;47274;43.054;25.146;2023-04-01T18:44:23;94354.03;;;8.15;100.00
61408;BME280;47274;43.054;25.146;2023-04-01T18:47:07;94363.59;;;8.04;100.00
61408;BME280;47274;43.054;25.146;2023-04-01T18:50:01;94368.69;;;7.80;100.00
61408;BME280;47274;43.054;25.146;2023-04-01T18:52:36;94371.34;;;7.62;100.00
61408;BME280;47274;43.054;25.146;2023-04-01T18:57:42;94358.09;;;7.42;100.00
61408;BME280;47274;43.054;25.146;2023-04-01T19:02:50;94362.59;;;7.14;100.00
61408;BME280;47274;43.054;25.146;2023-04-01T19:05:40;94369.66;;;7.20;100.00
61408;BME280;47274;43.054;25.146;2023-04-01T19:08:31;94387.38;;;7.22;100.00
61408;BME280;47274;43.054;25.146;2023-04-01T19:16:58;94399.75;;;7.51;100.00
61408;BME280;47274;43.054;25.146;2023-04-01T19:21:58;94393.56;;;7.70;100.00
61408;BME280;47274;43.054;25.146;2023-04-01T19:30:02;94392.78;;;7.77;100.00
61408;BME280;47274;43.054;25.146;2023-04-01T19:32:33;94391.50;;;7.73;100.00
61408;BME280;47274;43.054;25.146;2023-04-01T19:35:18;94398.56;;;7.79;100.00
61408;BME280;47274;43.054;25.146;2023-04-01T19:37:52;94383.50;;;7.68;100.00
61408;BME280;47274;43.054;25.146;2023-04-01T19:40:41;94397.59;;;7.80;100.00
61408;BME280;47274;43.054;25.146;2023-04-01T19:49:32;94388.00;;;7.74;100.00
61408;BME280;47274;43.054;25.146;2023-04-01T19:57:24;94391.47;;;7.65;100.00
61408;BME280;47274;43.054;25.146;2023-04-01T20:00:07;94386.38;;;7.65;100.00
61408;BME280;47274;43.054;25.146;2023-04-01T20:03:01;94394.19;;;7.64;100.00
61408;BME280;47274;43.054;25.146;2023-04-01T20:16:20;94401.44;;;7.34;100.00
61408;BME280;47274;43.054;25.146;2023-04-01T20:19:01;94385.94;;;7.27;100.00
61408;BME280;47274;43.054;25.146;2023-04-01T20:21:40;94403.78;;;7.27;100.00
61408;BME280;47274;43.054;25.146;2023-04-01T20:24:18;94397.69;;;7.12;99.62
61408;BME280;47274;43.054;25.146;2023-04-01T20:26:58;94393.69;;;7.09;99.79
61408;BME280;47274;43.054;25.146;2023-04-01T20:29:56;94378.97;;;7.03;97.65
61408;BME280;47274;43.054;25.146;2023-04-01T20:40:49;94391.53;;;6.97;96.93
61408;BME280;47274;43.054;25.146;2023-04-01T20:51:31;94404.50;;;7.03;96.95
61408;BME280;47274;43.054;25.146;2023-04-01T21:02:32;94432.75;;;7.10;97.28
61408;BME280;47274;43.054;25.146;2023-04-01T21:15:50;94427.50;;;7.11;97.43
61408;BME280;47274;43.054;25.146;2023-04-01T21:26:43;94430.75;;;7.22;98.81
61408;BME280;47274;43.054;25.146;2023-04-01T21:35:55;94443.00;;;7.18;99.13
61408;BME280;47274;43.054;25.146;2023-04-01T21:38:08;94450.31;;;7.21;99.02
61408;BME280;47274;43.054;25.146;2023-04-01T21:46:10;94439.53;;;7.27;98.23
61408;BME280;47274;43.054;25.146;2023-04-01T22:09:21;94478.69;;;7.44;91.59
61408;BME280;47274;43.054;25.146;2023-04-01T22:12:06;94469.84;;;7.30;89.80
61408;BME280;47274;43.054;25.146;2023-04-01T22:15:01;94482.97;;;7.35;91.50
61408;BME280;47274;43.054;25.146;2023-04-01T22:20:33;94452.06;;;7.12;91.00
61408;BME280;47274;43.054;25.146;2023-04-01T22:23:24;94476.66;;;7.22;91.71
61408;BME280;47274;43.054;25.146;2023-04-01T22:31:28;94467.66;;;7.09;92.75
61408;BME280;47274;43.054;25.146;2023-04-01T22:34:08;94469.13;;;7.12;92.79
61408;BME280;47274;43.054;25.146;2023-04-01T22:42:34;94450.47;;;7.11;93.19
61408;BME280;47274;43.054;25.146;2023-04-01T22:45:21;94449.63;;;7.11;91.66
61408;BME280;47274;43.054;25.146;2023-04-01T22:56:36;94405.31;;;6.78;90.98
61408;BME280;47274;43.054;25.146;2023-04-01T22:59:37;94457.72;;;6.98;91.99
61408;BME280;47274;43.054;25.146;2023-04-01T23:02:30;94453.66;;;6.87;93.48
61408;BME280;47274;43.054;25.146;2023-04-01T23:05:03;94458.09;;;6.85;93.72
61408;BME280;47274;43.054;25.146;2023-04-01T23:10:54;94459.56;;;6.88;92.32
61408;BME280;47274;43.054;25.146;2023-04-01T23:13:30;94454.91;;;6.83;90.97
61408;BME280;47274;43.054;25.146;2023-04-01T23:16:40;94473.31;;;6.95;90.98
61408;BME280;47274;43.054;25.146;2023-04-01T23:19:17;94464.16;;;6.84;90.97
61408;BME280;47274;43.054;25.146;2023-04-01T23:27:35;94460.81;;;6.84;89.35
61408;BME280;47274;43.054;25.146;2023-04-01T23:30:11;94459.41;;;6.89;88.28
61408;BME280;47274;43.054;25.146;2023-04-01T23:33:22;94456.16;;;7.05;85.73
61408;BME280;47274;43.054;25.146;2023-04-01T23:36:02;94455.97;;;6.99;86.97
61408;BME280;47274;43.054;25.146;2023-04-01T23:38:40;94388.41;;;6.51;85.85
61408;BME280;47274;43.054;25.146;2023-04-01T23:41:36;94433.78;;;6.91;84.49
61408;BME280;47274;43.054;25.146;2023-04-01T23:44:14;94447.84;;;7.03;84.91
61408;BME280;47274;43.054;25.146;2023-04-01T23:46:48;94416.44;;;6.77;85.36